Clear with few low clouds and cirrus
Clear with few low clouds and few cirrus
Clear with few low clouds and few cirrus
Clear with few low clouds and few cirrus
Partly cloudy and few cirrus
Partly cloudy
Clear with few low clouds
(°C)
29°
29°
30°
30°
30°
30°
30°
30°
30°
30°
29°
29°
27°
27°
(°C)
26°
26°
25°
24°
23°
21°
20°
SSW
SW
SW
WSW
W
W
W
(km/h)
13-24
15-27
18-31
19-34
21-37
21-35
20-31
(mm)
0
0
0
0
0
0
0
(%)
0
0
0
0
0
0
0

Sun elevation

/ 75°
sun-icon
UV 10
05:54
20:25
Waning gibbous moon (254°)
01:18
11:48

METAR for Farmington (KFMN)

Time Conditions Temperature/
Dewpoint
Wind Visibility Weather Clouds Pressure Change Raw
VFR 27.8°C / -4.4°C 150º 4kt >10km - Clear 1013 - KFMN 291753Z 15004KT 10SM CLR 28/M04 A3011 RMK AO2 SLP132 T02781044 10278 20111 58014
VFR 26.7°C / -3.3°C 120º 9kt >10km - Clear 1013 - KFMN 291653Z 12009KT 10SM CLR 27/M03 A3012 RMK AO2 SLP133 T02671033
VFR 23.9°C / 3.9°C 80º 10kt >10km - Clear 1014 - KFMN 291553Z 08010KT 10SM CLR 24/04 A3015 RMK AO2 SLP145 T02390039
VFR 20°C / 1.7°C 70º 8kt >10km - Clear 1014 - KFMN 291453Z 07008KT 10SM CLR 20/02 A3015 RMK AO2 SLP147 T02000017 51007
VFR 16.7°C / -4.4°C 80º 10kt >10km - Clear 1014 - KFMN 291353Z 08010KT 10SM CLR 17/M04 A3015 RMK AO2 SLP147 T01671044
VFR 13.3°C / -7.8°C 60º 7kt >10km - Clear 1014 - KFMN 291253Z 06007KT 10SM CLR 13/M08 A3015 RMK AO2 SLP149 T01331078
VFR 11.7°C / -9.4°C 70º 10kt >10km - Clear 1014 - KFMN 291153Z 07010KT 10SM CLR 12/M09 A3013 RMK AO2 SLP143 T01171094 10178 20094 53010
VFR 11.7°C / -7.8°C 100º 12kt >10km - Clear 1013 - KFMN 291053Z AUTO 10012KT 10SM CLR 12/M08 A3011 RMK AO2 SLP137 T01171078
VFR 10.6°C / °C 90º 4kt >10km - Clear 1013 - KFMN 290953Z AUTO 09004KT 10SM CLR 11/M12 A3010 RMK AO2 SLP136 T01061117
VFR 11.7°C / °C variable 0kt >10km - Clear 1013 - KFMN 290853Z AUTO 00000KT 10SM CLR 12/M13 A3009 RMK AO2 SLP131 T01171128 53002
VFR 10.6°C / °C 40º 6kt >10km - Clear 1013 - KFMN 290753Z AUTO 04006KT 10SM CLR 11/M13 A3008 RMK AO2 SLP131 T01061128
VFR 13.9°C / °C 360º 8kt >10km - Clear 1012 - KFMN 290653Z AUTO 36008KT 10SM CLR 14/M12 A3008 RMK AO2 SLP128 T01391122 403220089
VFR 17.8°C / °C 340º 6kt >10km - Clear 1012 - KFMN 290553Z AUTO 34006KT 10SM CLR 18/M16 A3009 RMK AO2 SLP126 T01781161 10311 20178 50010
VFR 21.1°C / °C 280º 4kt >10km - Clear 1012 - KFMN 290453Z AUTO 28004KT 10SM CLR 21/M16 A3010 RMK AO2 SLP127 T02111156
VFR 22.2°C / °C 240º 8kt >10km - Clear 1012 - KFMN 290353Z AUTO 24008KT 10SM CLR 22/M14 A3007 RMK AO2 SLP123 T02221144
VFR 26.1°C / °C 270º 8kt >10km - Clear 1011 - KFMN 290253Z 27008KT 10SM CLR 26/M16 A3005 RMK AO2 SLP115 T02611161 53004
VFR 29.4°C / °C 240º 3kt >10km - Clear 1011 - KFMN 290153Z 24003KT 10SM CLR 29/M14 A3004 RMK AO2 SLP110 T02941144
VFR 30.6°C / °C 250º 8kt >10km - Clear 1010 - KFMN 290053Z 25008KT 10SM CLR 31/M14 A3003 RMK AO2 SLP109 T03061144
VFR 31.1°C / °C variable 0kt >10km - Clear 1011 - KFMN 282353Z 00000KT 10SM CLR 31/M17 A3004 RMK AO2 SLP116 T03111167 10322 20272 58018
VFR 31.7°C / °C 6kt >10km - Clear 1012 - KFMN 282253Z VRB06KT 10SM CLR 32/M16 A3006 RMK AO2 SLP124 T03171156
VFR 31.1°C / °C 4kt >10km - Clear 1012 - KFMN 282153Z VRB04KT 10SM CLR 31/M16 A3008 RMK AO2 SLP129 T03111156
VFR 31.1°C / °C 230º variable 190º to 260º 7kt Gust 15kt >10km - Clear 1013 - KFMN 282053Z 23007G15KT 190V260 10SM CLR 31/M13 A3010 RMK AO2 SLP134 T03111133 57018
VFR 30°C / °C 230º 6kt >10km - Clear 1014 - KFMN 281953Z 23006KT 10SM CLR 30/M12 A3012 RMK AO2 SLP141 T03001122
VFR 29.4°C / °C variable 0kt >10km - Clear 1014 - KFMN 281853Z 00000KT 10SM CLR 29/M11 A3014 RMK AO2 SLP147 T02941106 $

VFR

27.8°C / -4.4°C

[More]
Wind 150º 4kt
Visibility >10km
Weather -
Clouds Clear
Pressure 1013
Change -
Raw KFMN 291753Z 15004KT 10SM CLR 28/M04 A3011 RMK AO2 SLP132 T02781044 10278 20111 58014

VFR

26.7°C / -3.3°C

[More]
Wind 120º 9kt
Visibility >10km
Weather -
Clouds Clear
Pressure 1013
Change -
Raw KFMN 291653Z 12009KT 10SM CLR 27/M03 A3012 RMK AO2 SLP133 T02671033

VFR

23.9°C / 3.9°C

[More]
Wind 80º 10kt
Visibility >10km
Weather -
Clouds Clear
Pressure 1014
Change -
Raw KFMN 291553Z 08010KT 10SM CLR 24/04 A3015 RMK AO2 SLP145 T02390039

VFR

20°C / 1.7°C

[More]
Wind 70º 8kt
Visibility >10km
Weather -
Clouds Clear
Pressure 1014
Change -
Raw KFMN 291453Z 07008KT 10SM CLR 20/02 A3015 RMK AO2 SLP147 T02000017 51007

VFR

16.7°C / -4.4°C

[More]
Wind 80º 10kt
Visibility >10km
Weather -
Clouds Clear
Pressure 1014
Change -
Raw KFMN 291353Z 08010KT 10SM CLR 17/M04 A3015 RMK AO2 SLP147 T01671044

VFR

13.3°C / -7.8°C

[More]
Wind 60º 7kt
Visibility >10km
Weather -
Clouds Clear
Pressure 1014
Change -
Raw KFMN 291253Z 06007KT 10SM CLR 13/M08 A3015 RMK AO2 SLP149 T01331078

VFR

11.7°C / -9.4°C

[More]
Wind 70º 10kt
Visibility >10km
Weather -
Clouds Clear
Pressure 1014
Change -
Raw KFMN 291153Z 07010KT 10SM CLR 12/M09 A3013 RMK AO2 SLP143 T01171094 10178 20094 53010

VFR

11.7°C / -7.8°C

[More]
Wind 100º 12kt
Visibility >10km
Weather -
Clouds Clear
Pressure 1013
Change -
Raw KFMN 291053Z AUTO 10012KT 10SM CLR 12/M08 A3011 RMK AO2 SLP137 T01171078

VFR

10.6°C / °C

[More]
Wind 90º 4kt
Visibility >10km
Weather -
Clouds Clear
Pressure 1013
Change -
Raw KFMN 290953Z AUTO 09004KT 10SM CLR 11/M12 A3010 RMK AO2 SLP136 T01061117

VFR

11.7°C / °C

[More]
Wind variable 0kt
Visibility >10km
Weather -
Clouds Clear
Pressure 1013
Change -
Raw KFMN 290853Z AUTO 00000KT 10SM CLR 12/M13 A3009 RMK AO2 SLP131 T01171128 53002

VFR

10.6°C / °C

[More]
Wind 40º 6kt
Visibility >10km
Weather -
Clouds Clear
Pressure 1013
Change -
Raw KFMN 290753Z AUTO 04006KT 10SM CLR 11/M13 A3008 RMK AO2 SLP131 T01061128

VFR

13.9°C / °C

[More]
Wind 360º 8kt
Visibility >10km
Weather -
Clouds Clear
Pressure 1012
Change -
Raw KFMN 290653Z AUTO 36008KT 10SM CLR 14/M12 A3008 RMK AO2 SLP128 T01391122 403220089

VFR

17.8°C / °C

[More]
Wind 340º 6kt
Visibility >10km
Weather -
Clouds Clear
Pressure 1012
Change -
Raw KFMN 290553Z AUTO 34006KT 10SM CLR 18/M16 A3009 RMK AO2 SLP126 T01781161 10311 20178 50010

VFR

21.1°C / °C

[More]
Wind 280º 4kt
Visibility >10km
Weather -
Clouds Clear
Pressure 1012
Change -
Raw KFMN 290453Z AUTO 28004KT 10SM CLR 21/M16 A3010 RMK AO2 SLP127 T02111156

VFR

22.2°C / °C

[More]
Wind 240º 8kt
Visibility >10km
Weather -
Clouds Clear
Pressure 1012
Change -
Raw KFMN 290353Z AUTO 24008KT 10SM CLR 22/M14 A3007 RMK AO2 SLP123 T02221144

VFR

26.1°C / °C

[More]
Wind 270º 8kt
Visibility >10km
Weather -
Clouds Clear
Pressure 1011
Change -
Raw KFMN 290253Z 27008KT 10SM CLR 26/M16 A3005 RMK AO2 SLP115 T02611161 53004

VFR

29.4°C / °C

[More]
Wind 240º 3kt
Visibility >10km
Weather -
Clouds Clear
Pressure 1011
Change -
Raw KFMN 290153Z 24003KT 10SM CLR 29/M14 A3004 RMK AO2 SLP110 T02941144

VFR

30.6°C / °C

[More]
Wind 250º 8kt
Visibility >10km
Weather -
Clouds Clear
Pressure 1010
Change -
Raw KFMN 290053Z 25008KT 10SM CLR 31/M14 A3003 RMK AO2 SLP109 T03061144

VFR

31.1°C / °C

[More]
Wind variable 0kt
Visibility >10km
Weather -
Clouds Clear
Pressure 1011
Change -
Raw KFMN 282353Z 00000KT 10SM CLR 31/M17 A3004 RMK AO2 SLP116 T03111167 10322 20272 58018

VFR

31.7°C / °C

[More]
Wind 6kt
Visibility >10km
Weather -
Clouds Clear
Pressure 1012
Change -
Raw KFMN 282253Z VRB06KT 10SM CLR 32/M16 A3006 RMK AO2 SLP124 T03171156

VFR

31.1°C / °C

[More]
Wind 4kt
Visibility >10km
Weather -
Clouds Clear
Pressure 1012
Change -
Raw KFMN 282153Z VRB04KT 10SM CLR 31/M16 A3008 RMK AO2 SLP129 T03111156

VFR

31.1°C / °C

[More]
Wind 230º variable 190º to 260º 7kt Gust 15kt
Visibility >10km
Weather -
Clouds Clear
Pressure 1013
Change -
Raw KFMN 282053Z 23007G15KT 190V260 10SM CLR 31/M13 A3010 RMK AO2 SLP134 T03111133 57018

VFR

30°C / °C

[More]
Wind 230º 6kt
Visibility >10km
Weather -
Clouds Clear
Pressure 1014
Change -
Raw KFMN 281953Z 23006KT 10SM CLR 30/M12 A3012 RMK AO2 SLP141 T03001122

VFR

29.4°C / °C

[More]
Wind variable 0kt
Visibility >10km
Weather -
Clouds Clear
Pressure 1014
Change -
Raw KFMN 281853Z 00000KT 10SM CLR 29/M11 A3014 RMK AO2 SLP147 T02941106 $

TAF for Farmington (KFMN)

From till


From till Wind 120º 10kt. Visibility 9700m. Scattered Clouds 25000ft.
From till Wind 230º 10kt. Visibility 9700m. Scattered Clouds 25000ft.
From till Wind 270º 12kt. Gust 21kt. Visibility 9700m. Few Clouds 15000ft.
From till Wind 6kt. Visibility 9700m. Sky Clear.

Raw: KFMN 291734Z 2918/3018 12010KT P6SM SCT250 FM291900 23010KT P6SM SCT250 FM292300 27012G21KT P6SM FEW150 FM300400 VRB06KT P6SM SKC

rainNOW: Rain nowcast for Farmington and surroundings (25km radius)

0.0 mm
0.0 mm
0.0 mm
0.0 mm
0.0 mm
0.0 mm
0.0 mm
0.0 mm
0.0 mm
0.0 mm
0.0 mm
0.0 mm

Radar and precipitation nowcast for Farmington

Drizzle
Light
Moderate
Heavy
Very Heavy
Hail

The location marker is placed on Farmington. This animation shows the precipitation radar for the selected time range, as well as a 1h forecast. Orange crosses indicate lightning. Data provided by nowcast.de (available in USA, Europe, Australia). Drizzle or light snow fall might be invisible for the radar. Precipitation intensity is colour coded, ranging from turquoise to red.

Current satellite images for Farmington, United States

The location marker is placed on Farmington. [More]

The real-time satellite image combines visible light during daytime with infrared radiation during nighttime. At night, the image is not dark as infrared radiation can detect temperature differences. Unfortunately, low clouds and fog are difficult to distinguish from ground temperatures and thus can be almost invisible during the night. Meteosat satellite images for Europe are updated in real-time every 5 minutes. GOES-16/GOES-17 (North & South America) and Himawari (Asia) images update every 10 minutes.

Precipitation is estimated from radar and satellites. Precipitation estimates from satellites are less accurate at night than during daytime.

© 2024 meteoblue, NOAA Satellites GOES-16 and EUMETSAT. Lightning data provided by nowcast.

Back to top
×
Hey there,
seems like you are using an ad blocker.

Advertising is essential to maintain our free website with unique detail and accuracy.

Please whitelist www.meteoblue.com on your ad blocker or consider buying one of our products:

Already have a subscription?
Then please login.